Time;durP1;ratioP1;P1;durP2;ratioP2;P2;SDS_P1;SDS_P2;PMS_P1;PMS_P2;Temp;Humidity;BMP_temperature;BMP_pressure;BME280_temperature;BME280_humidity;BME280_pressure;Samples;Min_cycle;Max_cycle;Signal;HPM_P1;HPM_P2
2023/01/04 05:33:38;;;;;;;15.18;2.22;;;13.80;87.90;;;;;;4903393;29;20047;-75
2023/01/04 05:36:03;;;;;;;16.08;2.80;;;13.80;88.10;;;;;;4963639;28;20034;-75
2023/01/04 05:38:30;;;;;;;9.93;1.88;;;13.80;88.20;;;;;;4978590;28;20031;-75
2023/01/04 05:40:55;;;;;;;16.52;2.20;;;13.80;88.00;;;;;;4962585;28;20121;-76
2023/01/04 05:43:22;;;;;;;10.57;2.47;;;13.80;88.20;;;;;;4979863;28;20145;-78
2023/01/04 05:45:50;;;;;;;14.27;1.80;;;13.80;88.20;;;;;;4963028;28;20098;-77
2023/01/04 05:48:17;;;;;;;9.27;1.83;;;13.80;88.20;;;;;;4980663;28;20066;-76
2023/01/04 05:50:44;;;;;;;15.35;2.35;;;13.90;88.20;;;;;;4961614;28;20113;-77
2023/01/04 05:53:11;;;;;;;11.93;2.20;;;13.90;88.10;;;;;;4963355;28;20665;-78
2023/01/04 05:55:37;;;;;;;11.07;2.25;;;13.90;88.00;;;;;;4979585;28;20029;-75
2023/01/04 05:58:11;;;;;;;13.00;2.13;;;13.90;88.00;;;;;;4963404;28;20026;-86
2023/01/04 06:00:37;;;;;;;8.65;1.95;;;14.00;88.10;;;;;;4979705;28;20033;-84
2023/01/04 06:03:03;;;;;;;6.10;1.40;;;14.00;87.90;;;;;;4960451;28;20117;-81
2023/01/04 06:05:28;;;;;;;10.20;1.58;;;14.00;87.80;;;;;;4979412;28;20050;-80
2023/01/04 06:07:54;;;;;;;12.35;1.75;;;14.00;87.70;;;;;;4979522;28;20018;-81
2023/01/04 06:10:20;;;;;;;9.75;2.00;;;14.00;87.70;;;;;;4962417;28;20553;-78
2023/01/04 06:12:46;;;;;;;12.80;2.10;;;14.00;87.70;;;;;;4978512;28;20401;-78
2023/01/04 06:15:12;;;;;;;25.15;2.08;;;14.10;87.60;;;;;;4978936;28;20074;-77
2023/01/04 06:17:38;;;;;;;7.07;1.60;;;14.10;87.50;;;;;;4963126;28;20057;-77
2023/01/04 06:20:08;;;;;;;8.40;2.08;;;14.10;87.50;;;;;;4960370;28;20559;-77
2023/01/04 06:22:34;;;;;;;8.73;1.40;;;14.00;87.50;;;;;;4961170;28;20054;-77
2023/01/04 06:25:00;;;;;;;11.80;2.00;;;14.10;87.50;;;;;;4979953;28;20031;-77
2023/01/04 06:27:26;;;;;;;5.57;2.08;;;14.10;87.40;;;;;;4961572;28;20038;-77
2023/01/04 06:29:52;;;;;;;9.27;1.80;;;14.10;87.60;;;;;;4962844;28;20041;-76
2023/01/04 06:32:17;;;;;;;10.18;1.70;;;14.10;87.40;;;;;;4978380;28;20046;-76
2023/01/04 06:34:43;;;;;;;7.45;1.75;;;14.10;87.50;;;;;;4979747;28;20101;-76
2023/01/04 06:37:09;;;;;;;14.10;2.63;;;14.10;87.50;;;;;;4979819;28;20037;-76
2023/01/04 06:39:36;;;;;;;12.50;2.03;;;14.10;87.40;;;;;;4979950;28;20579;-76
2023/01/04 06:42:02;;;;;;;8.95;1.85;;;14.10;87.50;;;;;;4979991;28;20093;-76
2023/01/04 06:44:27;;;;;;;6.43;1.70;;;14.10;87.50;;;;;;4967621;28;20477;-76
2023/01/04 06:46:53;;;;;;;4.68;1.40;;;14.10;87.50;;;;;;4977893;28;20070;-76
2023/01/04 06:49:19;;;;;;;10.05;1.90;;;14.00;87.40;;;;;;4979365;28;20530;-77
2023/01/04 06:51:45;;;;;;;5.93;1.75;;;14.10;87.60;;;;;;4979221;28;21644;-77
2023/01/04 06:54:11;;;;;;;6.18;1.58;;;14.10;87.50;;;;;;4980177;28;20119;-77
2023/01/04 06:56:37;;;;;;;7.15;2.10;;;14.10;87.50;;;;;;4978318;28;20030;-77
2023/01/04 06:59:03;;;;;;;7.97;2.20;;;14.20;87.50;;;;;;4978274;28;20031;-77
2023/01/04 07:01:29;;;;;;;5.57;1.65;;;14.20;87.40;;;;;;4977123;28;20031;-77
2023/01/04 07:03:54;;;;;;;8.27;1.52;;;14.20;87.30;;;;;;4979533;28;20054;-77
2023/01/04 07:06:20;;;;;;;7.45;1.83;;;14.10;87.50;;;;;;4979085;28;20400;-77
2023/01/04 07:08:45;;;;;;;6.72;1.38;;;14.10;87.50;;;;;;4979259;28;20034;-77
2023/01/04 07:11:11;;;;;;;8.43;1.77;;;14.10;87.60;;;;;;4979354;28;20089;-77
2023/01/04 07:13:39;;;;;;;8.32;1.67;;;14.10;87.50;;;;;;4977886;28;20037;-77
2023/01/04 07:16:05;;;;;;;10.15;1.50;;;14.20;87.60;;;;;;4962061;28;20035;-77
2023/01/04 07:18:31;;;;;;;14.60;2.03;;;14.20;87.50;;;;;;4978568;28;20910;-77
2023/01/04 07:20:56;;;;;;;10.77;2.20;;;14.20;87.40;;;;;;4977956;28;20105;-77
2023/01/04 07:23:22;;;;;;;6.88;1.75;;;14.20;87.70;;;;;;4978865;28;20085;-77
2023/01/04 07:25:48;;;;;;;13.10;1.77;;;14.20;87.50;;;;;;4978740;28;20065;-77
2023/01/04 07:29:13;;;;;;;10.55;2.10;;;14.20;87.60;;;;;;4979507;28;20106;-77
2023/01/04 07:31:04;;;;;;;7.22;1.95;;;14.20;87.60;;;;;;4976843;28;20100;-77
2023/01/04 07:33:29;;;;;;;9.30;1.67;;;14.20;87.60;;;;;;4976494;28;20512;-77
2023/01/04 07:36:01;;;;;;;11.07;2.00;;;14.20;87.60;;;;;;4979259;28;20030;-77
2023/01/04 07:38:26;;;;;;;6.47;1.75;;;14.20;87.50;;;;;;4978444;28;20043;-77
2023/01/04 07:40:53;;;;;;;9.38;1.58;;;14.20;87.80;;;;;;4978567;28;20026;-77
2023/01/04 07:43:18;;;;;;;6.68;1.92;;;14.20;87.80;;;;;;4960850;28;20485;-76
2023/01/04 07:45:45;;;;;;;9.07;1.73;;;14.20;87.70;;;;;;4978897;28;20085;-77
2023/01/04 07:48:10;;;;;;;7.97;1.42;;;14.20;87.70;;;;;;4960587;28;20037;-77
2023/01/04 07:50:36;;;;;;;9.38;2.75;;;14.20;87.80;;;;;;4978549;28;20030;-77
2023/01/04 07:53:02;;;;;;;8.38;2.05;;;14.20;87.70;;;;;;4978294;28;20117;-77
2023/01/04 07:55:27;;;;;;;6.25;1.52;;;14.20;87.80;;;;;;4977054;28;20094;-77
2023/01/04 07:57:53;;;;;;;6.57;1.52;;;14.20;87.70;;;;;;4977977;28;20114;-77
2023/01/04 08:00:19;;;;;;;6.53;1.10;;;14.20;87.70;;;;;;4977123;28;20744;-77
2023/01/04 08:02:47;;;;;;;9.23;1.50;;;14.20;87.80;;;;;;4977448;28;20030;-77
2023/01/04 08:05:12;;;;;;;10.45;1.40;;;14.20;87.80;;;;;;4977561;28;20025;-77
2023/01/04 08:07:38;;;;;;;17.38;1.88;;;14.20;87.70;;;;;;4977182;28;20034;-77
2023/01/04 08:10:04;;;;;;;3.40;1.58;;;14.20;87.80;;;;;;4978879;28;20448;-77
2023/01/04 08:12:30;;;;;;;3.97;1.23;;;14.30;87.70;;;;;;4978008;28;20085;-76
2023/01/04 08:14:55;;;;;;;7.03;1.67;;;14.30;87.80;;;;;;4978642;28;20042;-77
2023/01/04 08:17:21;;;;;;;4.57;1.35;;;14.30;87.70;;;;;;4959673;28;20026;-77
2023/01/04 08:19:47;;;;;;;3.83;1.30;;;14.20;88.00;;;;;;4978164;28;20034;-77
2023/01/04 08:22:13;;;;;;;4.78;1.13;;;14.20;88.00;;;;;;4976817;28;20022;-81
2023/01/04 08:24:39;;;;;;;7.53;1.40;;;14.30;88.00;;;;;;4977536;28;20444;-81
2023/01/04 08:27:06;;;;;;;8.80;1.27;;;14.30;88.10;;;;;;4963236;28;20030;-79
2023/01/04 08:29:32;;;;;;;4.30;1.08;;;14.20;88.20;;;;;;4976136;28;20034;-80
2023/01/04 08:31:58;;;;;;;4.85;1.30;;;14.30;88.10;;;;;;4975312;28;20058;-79
2023/01/04 08:34:23;;;;;;;7.45;1.50;;;14.30;88.20;;;;;;4975625;28;20033;-79
2023/01/04 08:36:52;;;;;;;4.30;1.25;;;14.30;88.00;;;;;;4976687;28;20025;-79
2023/01/04 08:39:18;;;;;;;7.90;1.27;;;14.30;88.20;;;;;;4977476;28;20030;-78
2023/01/04 08:41:49;;;;;;;6.82;1.23;;;14.30;88.20;;;;;;4959087;28;20021;-80
2023/01/04 08:44:23;;;;;;;4.55;1.10;;;14.30;88.00;;;;;;4978166;28;20108;-79
2023/01/04 08:46:50;;;;;;;6.35;1.50;;;14.30;88.00;;;;;;4980453;28;20511;-80
2023/01/04 08:49:17;;;;;;;7.20;1.33;;;14.30;88.10;;;;;;4963411;28;20046;-76
2023/01/04 08:51:43;;;;;;;4.55;0.93;;;14.30;88.10;;;;;;4981253;28;20655;-76
2023/01/04 08:54:09;;;;;;;4.75;1.20;;;14.30;88.20;;;;;;4980599;28;20382;-76
2023/01/04 08:56:36;;;;;;;5.97;0.90;;;14.30;88.00;;;;;;4980882;28;20107;-76
2023/01/04 08:59:02;;;;;;;3.72;1.30;;;14.30;88.10;;;;;;4978400;28;20041;-76
2023/01/04 09:01:27;;;;;;;2.67;0.90;;;14.30;88.20;;;;;;4981011;28;20018;-76
2023/01/04 09:03:55;;;;;;;8.23;0.98;;;14.30;88.10;;;;;;4979248;28;20110;-76
2023/01/04 09:06:21;;;;;;;5.30;1.00;;;14.40;88.10;;;;;;4980611;28;20082;-77
2023/01/04 09:08:47;;;;;;;6.20;1.02;;;14.40;88.10;;;;;;4980159;28;20037;-76
2023/01/04 09:11:14;;;;;;;3.85;0.93;;;14.40;88.10;;;;;;4962954;28;20031;-76
2023/01/04 09:13:41;;;;;;;7.10;1.13;;;14.40;88.00;;;;;;4978166;28;20125;-77
2023/01/04 09:16:11;;;;;;;3.03;1.10;;;14.40;88.00;;;;;;4978184;28;20062;-76
2023/01/04 09:18:38;;;;;;;7.97;1.25;;;14.40;88.10;;;;;;4982629;28;20050;-76
2023/01/04 09:21:09;;;;;;;4.05;0.98;;;14.50;87.80;;;;;;4964470;28;20019;-76
2023/01/04 09:23:36;;;;;;;4.95;0.93;;;14.50;87.80;;;;;;4964324;28;20037;-76
2023/01/04 09:26:06;;;;;;;3.20;1.00;;;14.50;87.70;;;;;;4982346;28;20022;-76
2023/01/04 09:28:32;;;;;;;3.65;1.00;;;14.50;87.50;;;;;;4963070;28;20027;-76
2023/01/04 09:30:58;;;;;;;4.95;0.82;;;14.50;87.30;;;;;;4981092;28;20054;-76
2023/01/04 09:33:23;;;;;;;6.05;1.60;;;14.50;87.20;;;;;;4979772;28;20774;-76
2023/01/04 09:35:49;;;;;;;1.83;0.70;;;14.50;87.10;;;;;;4963581;28;20129;-76
2023/01/04 09:38:14;;;;;;;4.60;1.10;;;14.50;87.10;;;;;;4980826;28;20062;-76
2023/01/04 09:41:00;;;;;;;2.60;0.77;;;14.60;86.90;;;;;;4980274;28;20022;-76
2023/01/04 09:43:32;;;;;;;3.28;0.63;;;14.60;86.90;;;;;;4980474;28;20761;-76
2023/01/04 09:46:05;;;;;;;1.33;0.73;;;14.60;86.80;;;;;;4979620;28;20559;-76
2023/01/04 09:48:32;;;;;;;5.70;1.17;;;14.60;86.80;;;;;;4979840;28;20036;-77
2023/01/04 09:51:10;;;;;;;5.05;0.85;;;14.70;86.80;;;;;;4979875;28;20420;-76
2023/01/04 09:53:45;;;;;;;2.75;0.90;;;14.70;86.80;;;;;;4978513;28;20039;-76
2023/01/04 09:56:27;;;;;;;1.67;0.90;;;14.70;86.80;;;;;;4979464;28;20500;-77
2023/01/04 09:58:54;;;;;;;3.53;1.00;;;14.70;86.70;;;;;;4980248;28;20391;-76
2023/01/04 10:01:21;;;;;;;3.85;0.75;;;14.70;86.60;;;;;;4978985;28;20050;-76
2023/01/04 10:03:58;;;;;;;6.25;1.10;;;14.70;86.50;;;;;;4977885;28;20105;-76
2023/01/04 10:06:25;;;;;;;3.28;0.75;;;14.80;86.50;;;;;;4960295;28;20109;-76
2023/01/04 10:08:50;;;;;;;4.10;1.65;;;14.80;86.40;;;;;;4979175;28;20037;-75
2023/01/04 10:11:30;;;;;;;5.00;1.10;;;14.80;86.10;;;;;;4978985;28;20031;-76
2023/01/04 10:14:17;;;;;;;1.73;0.77;;;14.80;86.20;;;;;;4977791;28;20034;-76
2023/01/04 10:17:20;;;;;;;3.85;1.20;;;14.80;85.90;;;;;;4976679;28;20027;-76
2023/01/04 10:20:06;;;;;;;2.05;1.00;;;14.90;86.00;;;;;;4960704;28;20030;-76
2023/01/04 10:22:51;;;;;;;6.50;1.33;;;14.80;85.70;;;;;;4978338;28;20506;-76
2023/01/04 10:25:25;;;;;;;4.50;1.02;;;14.80;85.80;;;;;;4979689;28;20030;-76
2023/01/04 10:28:39;;;;;;;4.35;1.45;;;14.80;85.80;;;;;;4962257;28;20097;-76
2023/01/04 10:31:17;;;;;;;5.43;1.00;;;14.80;85.70;;;;;;4893695;28;20056;-75
2023/01/04 10:33:47;;;;;;;9.32;1.90;;;14.90;85.60;;;;;;4979108;28;20027;-76
2023/01/04 10:36:16;;;;;;;;;;;14.90;85.50;;;;;;4962069;28;20069;-76
2023/01/04 10:38:42;;;;;;;6.53;1.83;;;15.00;85.40;;;;;;4960955;28;20450;-75
2023/01/04 10:41:16;;;;;;;8.50;1.27;;;15.00;85.20;;;;;;4977634;28;20377;-75
2023/01/04 10:43:52;;;;;;;6.78;1.55;;;15.00;85.30;;;;;;4976517;28;20023;-76
2023/01/04 10:46:42;;;;;;;6.07;1.55;;;15.00;85.10;;;;;;4978886;28;21146;-76
2023/01/04 10:49:37;;;;;;;4.78;1.20;;;15.00;85.10;;;;;;4959787;28;20117;-76
2023/01/04 10:52:25;;;;;;;4.70;1.20;;;15.10;85.10;;;;;;4959278;28;20034;-76
2023/01/04 10:55:02;;;;;;;5.15;1.10;;;15.10;85.00;;;;;;4977119;28;20019;-77
2023/01/04 10:57:35;;;;;;;4.95;1.50;;;15.10;84.90;;;;;;4960693;28;20030;-77
2023/01/04 11:00:06;;;;;;;4.70;1.13;;;15.10;85.10;;;;;;4960313;28;20041;-77
2023/01/04 11:02:39;;;;;;;1.63;0.85;;;15.10;85.00;;;;;;4961426;28;20109;-77
2023/01/04 11:05:20;;;;;;;5.90;1.15;;;15.00;85.10;;;;;;4961047;28;20027;-77
2023/01/04 11:07:49;;;;;;;2.47;0.77;;;15.10;85.20;;;;;;4961765;28;20039;-77
2023/01/04 11:10:19;;;;;;;4.55;1.10;;;15.10;84.80;;;;;;4961772;28;20026;-77
2023/01/04 11:12:45;;;;;;;4.30;0.90;;;15.10;85.00;;;;;;4976378;28;20114;-77
2023/01/04 11:15:11;;;;;;;2.72;0.90;;;15.10;85.00;;;;;;4948438;28;20782;-77
2023/01/04 11:17:37;;;;;;;7.05;1.15;;;15.10;85.00;;;;;;4957249;28;20039;-77
2023/01/04 11:20:04;;;;;;;3.20;1.95;;;15.10;85.30;;;;;;4961101;28;20117;-77
2023/01/04 11:22:41;;;;;;;4.05;1.17;;;15.10;85.10;;;;;;4980191;28;20529;-77
2023/01/04 11:25:15;;;;;;;4.50;1.25;;;15.20;85.20;;;;;;4978852;28;20022;-76
2023/01/04 11:27:48;;;;;;;4.43;1.17;;;15.10;85.20;;;;;;4974987;28;20035;-77
2023/01/04 11:30:24;;;;;;;3.95;1.27;;;15.20;85.30;;;;;;4961067;28;20517;-78
2023/01/04 11:33:02;;;;;;;5.80;1.08;;;15.10;85.20;;;;;;4975539;28;20043;-79
2023/01/04 11:35:55;;;;;;;6.40;1.27;;;15.10;85.40;;;;;;4975203;28;20113;-77
2023/01/04 11:38:22;;;;;;;4.32;0.95;;;15.10;85.30;;;;;;4955181;28;20047;-79
2023/01/04 11:41:04;;;;;;;3.55;0.85;;;15.10;85.50;;;;;;4975234;28;20038;-81
2023/01/04 11:43:36;;;;;;;6.97;1.10;;;15.10;85.40;;;;;;4977148;28;20033;-79
2023/01/04 11:46:16;;;;;;;4.68;1.48;;;15.10;85.70;;;;;;4977967;28;20069;-78
2023/01/04 11:48:44;;;;;;;6.82;0.77;;;15.20;85.60;;;;;;4975989;28;20037;-78
2023/01/04 11:51:25;;;;;;;4.53;1.85;;;15.20;85.40;;;;;;4978444;28;20109;-80
2023/01/04 11:54:11;;;;;;;6.43;1.50;;;15.20;85.30;;;;;;4979083;28;20034;-76
2023/01/04 11:56:37;;;;;;;3.58;1.08;;;15.20;85.50;;;;;;4967595;28;20058;-78
2023/01/04 11:59:14;;;;;;;2.45;1.08;;;15.20;85.50;;;;;;4959559;28;20039;-77
2023/01/04 12:01:48;;;;;;;3.97;1.00;;;15.20;85.50;;;;;;4977176;28;20054;-78
2023/01/04 12:04:20;;;;;;;1.00;0.80;;;15.20;85.60;;;;;;4978064;28;20604;-79
2023/01/04 12:06:54;;;;;;;4.97;0.95;;;15.30;85.40;;;;;;4977195;28;20026;-79
2023/01/04 12:09:20;;;;;;;3.05;0.70;;;15.30;85.40;;;;;;4960932;28;20025;-77
2023/01/04 12:11:54;;;;;;;3.05;0.93;;;15.30;85.40;;;;;;4959769;28;20042;-77
2023/01/04 12:14:36;;;;;;;1.25;0.82;;;15.30;85.40;;;;;;4978036;28;20077;-76
2023/01/04 12:17:23;;;;;;;4.93;1.25;;;15.30;85.70;;;;;;4977548;28;20098;-75
2023/01/04 12:19:53;;;;;;;1.73;0.77;;;15.30;85.70;;;;;;4959852;28;20116;-78
2023/01/04 12:22:32;;;;;;;4.55;1.20;;;15.30;85.80;;;;;;4977169;28;20015;-81
2023/01/04 12:24:58;;;;;;;6.03;1.33;;;15.30;85.80;;;;;;4977472;28;20034;-77
2023/01/04 12:27:24;;;;;;;1.52;0.80;;;15.30;85.90;;;;;;4953581;28;21463;-80
2023/01/04 12:30:01;;;;;;;3.53;1.17;;;15.40;86.00;;;;;;4974646;28;20034;-80
2023/01/04 12:32:26;;;;;;;5.75;1.15;;;15.50;86.00;;;;;;4973792;28;20073;-79
2023/01/04 12:34:53;;;;;;;1.20;0.50;;;15.50;86.00;;;;;;4975041;28;20027;-79
2023/01/04 12:37:48;;;;;;;2.75;0.85;;;15.60;86.00;;;;;;4976344;28;20042;-79
2023/01/04 12:40:47;;;;;;;1.98;0.60;;;15.50;86.10;;;;;;4959958;28;20023;-80
2023/01/04 12:43:17;;;;;;;1.30;1.00;;;15.60;86.00;;;;;;4976047;28;20101;-79
2023/01/04 12:45:47;;;;;;;1.25;0.65;;;15.50;85.90;;;;;;4955956;28;20031;-80
2023/01/04 12:51:27;;;;;;;4.57;0.90;;;15.70;85.90;;;;;;4973605;28;20523;-80
2023/01/04 12:53:54;;;;;;;3.75;0.73;;;15.70;85.70;;;;;;4955631;28;20033;-80
2023/01/04 12:56:20;;;;;;;1.55;0.73;;;15.70;85.50;;;;;;4971163;28;20022;-80
2023/01/04 12:59:13;;;;;;;3.42;0.60;;;15.70;85.60;;;;;;4973716;28;20038;-80
2023/01/04 13:01:39;;;;;;;2.13;0.80;;;15.70;85.30;;;;;;4959624;28;20019;-80
2023/01/04 13:04:40;;;;;;;0.90;0.60;;;15.70;85.20;;;;;;4975382;28;20034;-79
2023/01/04 13:07:23;;;;;;;2.28;0.77;;;15.70;85.20;;;;;;4880954;29;20061;-80
2023/01/04 13:09:57;;;;;;;1.50;0.70;;;15.60;85.30;;;;;;4951071;28;20034;-81
2023/01/04 13:12:26;;;;;;;3.00;0.80;;;15.60;85.20;;;;;;4978064;28;20047;-81
2023/01/04 13:15:00;;;;;;;1.10;0.68;;;15.60;85.20;;;;;;4978104;28;20033;-81
2023/01/04 13:17:26;;;;;;;1.33;0.60;;;15.70;85.30;;;;;;4975630;28;20100;-80
2023/01/04 13:19:52;;;;;;;1.98;0.88;;;15.70;85.20;;;;;;4954317;28;20085;-79
2023/01/04 13:22:31;;;;;;;2.33;0.73;;;15.60;84.80;;;;;;4972768;28;20034;-80
2023/01/04 13:24:58;;;;;;;1.10;0.63;;;15.50;85.20;;;;;;4972814;28;20071;-80
2023/01/04 13:27:25;;;;;;;1.13;0.65;;;15.60;85.10;;;;;;4975330;28;20027;-80
2023/01/04 13:29:51;;;;;;;1.00;0.70;;;15.60;85.10;;;;;;4956229;28;20038;-80
2023/01/04 13:32:25;;;;;;;0.80;0.50;;;15.70;85.00;;;;;;4961185;28;20158;-80
2023/01/04 13:34:59;;;;;;;1.50;0.60;;;15.60;84.50;;;;;;4977238;28;20030;-80
2023/01/04 13:37:35;;;;;;;1.17;0.70;;;15.50;85.00;;;;;;4979796;28;20043;-80
2023/01/04 13:40:10;;;;;;;1.45;0.65;;;15.60;84.80;;;;;;4977815;28;20031;-80
2023/01/04 13:42:40;;;;;;;1.05;0.60;;;15.60;84.80;;;;;;4979772;28;20655;-80
2023/01/04 13:45:13;;;;;;;1.45;0.90;;;15.60;84.80;;;;;;4980299;28;20248;-80
2023/01/04 13:47:41;;;;;;;1.48;0.70;;;15.60;84.80;;;;;;4978905;28;20516;-80
2023/01/04 13:50:34;;;;;;;1.25;0.75;;;15.60;84.60;;;;;;4980655;28;20035;-80
2023/01/04 13:53:00;;;;;;;0.85;0.60;;;15.60;84.50;;;;;;4980459;28;20164;-80
2023/01/04 13:55:31;;;;;;;2.10;0.85;;;15.70;84.50;;;;;;4962064;28;20037;-80
2023/01/04 13:58:00;;;;;;;0.88;0.57;;;15.60;84.20;;;;;;4981155;28;20030;-80
2023/01/04 14:00:32;;;;;;;1.02;0.50;;;15.70;84.30;;;;;;4979950;28;20034;-80
2023/01/04 14:03:06;;;;;;;1.25;0.60;;;15.70;84.20;;;;;;4961857;28;20101;-80
2023/01/04 14:05:32;;;;;;;1.20;0.52;;;15.70;84.10;;;;;;4979444;28;20041;-80
2023/01/04 14:07:58;;;;;;;1.30;0.55;;;15.70;84.10;;;;;;4984504;28;20034;-80
2023/01/04 14:10:24;;;;;;;2.53;0.70;;;15.70;84.00;;;;;;4977192;28;20097;-80
2023/01/04 14:12:50;;;;;;;0.98;0.60;;;15.70;83.90;;;;;;4978903;28;20449;-80
2023/01/04 14:15:15;;;;;;;2.00;0.70;;;15.70;83.90;;;;;;4960223;28;20060;-80
2023/01/04 14:17:54;;;;;;;1.00;0.60;;;15.70;84.10;;;;;;4976664;28;20054;-78
2023/01/04 14:20:21;;;;;;;2.45;0.68;;;15.70;84.00;;;;;;4959218;28;20038;-81
2023/01/04 14:22:47;;;;;;;0.70;0.40;;;15.70;83.90;;;;;;4976899;28;20393;-81
2023/01/04 14:25:39;;;;;;;2.20;0.80;;;15.70;83.80;;;;;;4958217;28;20030;-81
2023/01/04 14:28:29;;;;;;;1.88;0.50;;;15.70;83.70;;;;;;4977390;28;20033;-81
2023/01/04 14:31:09;;;;;;;3.03;0.63;;;15.70;83.80;;;;;;4961407;28;20610;-81
2023/01/04 14:33:35;;;;;;;2.67;0.70;;;15.70;83.90;;;;;;4977292;28;20035;-80
2023/01/04 14:36:05;;;;;;;2.60;0.60;;;15.70;83.80;;;;;;4979175;28;20393;-81
2023/01/04 14:38:57;;;;;;;2.97;0.50;;;15.60;83.70;;;;;;4976118;28;20030;-81
2023/01/04 14:41:24;;;;;;;1.10;0.68;;;15.60;83.90;;;;;;4948836;28;20038;-81
2023/01/04 14:43:52;;;;;;;1.50;0.60;;;15.50;83.80;;;;;;4976383;28;20022;-81
2023/01/04 14:46:19;;;;;;;0.88;0.60;;;15.60;84.00;;;;;;4959979;28;20026;-80
2023/01/04 14:48:44;;;;;;;2.42;0.68;;;15.50;83.90;;;;;;4973397;28;20038;-81
2023/01/04 14:51:16;;;;;;;1.48;0.52;;;15.50;84.20;;;;;;4976547;28;20761;-81
2023/01/04 14:53:42;;;;;;;3.72;1.00;;;15.50;83.70;;;;;;4975612;28;20080;-81
2023/01/04 14:56:13;;;;;;;1.65;0.60;;;15.60;83.80;;;;;;4978018;28;20481;-81
2023/01/04 14:58:39;;;;;;;2.42;0.57;;;15.60;83.70;;;;;;4961495;28;20081;-81
2023/01/04 15:01:04;;;;;;;1.60;0.73;;;15.50;83.90;;;;;;4962106;28;20027;-81
2023/01/04 15:03:30;;;;;;;1.40;0.65;;;15.60;83.80;;;;;;4977547;28;20094;-81
2023/01/04 15:05:56;;;;;;;2.00;0.70;;;15.60;83.70;;;;;;4975440;28;20037;-81
2023/01/04 15:08:21;;;;;;;1.52;0.63;;;15.60;83.50;;;;;;4977857;28;20049;-81
2023/01/04 15:10:47;;;;;;;2.05;0.60;;;15.60;83.30;;;;;;4977323;28;20827;-81
2023/01/04 15:13:13;;;;;;;1.50;0.80;;;15.60;83.60;;;;;;4957664;28;20626;-81
2023/01/04 15:15:39;;;;;;;2.25;0.50;;;15.60;83.50;;;;;;4974808;28;20033;-81
2023/01/04 15:18:05;;;;;;;1.30;0.60;;;15.60;83.20;;;;;;4976737;28;20026;-80
2023/01/04 15:20:30;;;;;;;0.77;0.57;;;15.50;83.40;;;;;;4959867;28;20564;-80
2023/01/04 15:22:56;;;;;;;0.57;0.43;;;15.50;83.30;;;;;;4976389;28;20035;-80
2023/01/04 15:25:22;;;;;;;1.73;0.65;;;15.60;83.40;;;;;;4976105;28;20026;-80
2023/01/04 15:27:48;;;;;;;1.25;0.73;;;15.60;83.50;;;;;;4959655;28;20026;-79
2023/01/04 15:30:14;;;;;;;4.82;1.05;;;15.50;83.50;;;;;;4975281;28;20053;-79
2023/01/04 15:32:40;;;;;;;3.17;0.70;;;15.50;83.50;;;;;;4976554;28;20034;-78
2023/01/04 15:35:06;;;;;;;2.78;0.70;;;15.50;83.40;;;;;;4959549;28;20027;-81
2023/01/04 15:37:32;;;;;;;1.77;0.60;;;15.40;83.60;;;;;;4969158;28;20153;-80
2023/01/04 15:39:57;;;;;;;2.10;0.80;;;15.30;83.60;;;;;;4975951;28;20031;-81
2023/01/04 15:45:07;;;;;;;1.88;0.73;;;15.30;84.00;;;;;;4976465;28;20065;-80
2023/01/04 15:47:33;;;;;;;1.50;1.00;;;15.30;84.00;;;;;;4957651;28;20051;-81
2023/01/04 15:49:59;;;;;;;1.05;0.70;;;15.30;84.10;;;;;;4976212;28;20022;-80
2023/01/04 15:52:25;;;;;;;2.50;0.60;;;15.30;84.10;;;;;;4976493;28;20039;-80
2023/01/04 15:54:50;;;;;;;1.25;0.73;;;15.30;84.20;;;;;;4957380;28;20613;-80
2023/01/04 15:57:16;;;;;;;0.60;0.57;;;15.30;84.30;;;;;;4976082;28;20038;-80
2023/01/04 15:59:41;;;;;;;1.63;0.70;;;15.20;84.40;;;;;;4976099;28;20449;-80
2023/01/04 16:02:10;;;;;;;5.18;0.95;;;15.20;84.60;;;;;;4957056;28;20173;-80
2023/01/04 16:04:36;;;;;;;1.02;0.50;;;15.20;84.70;;;;;;4970611;28;20018;-80
2023/01/04 16:07:02;;;;;;;1.42;0.75;;;15.20;84.70;;;;;;4976922;28;20558;-80
2023/01/04 16:09:28;;;;;;;1.17;0.60;;;15.20;84.60;;;;;;4974935;28;20186;-81
2023/01/04 16:14:38;;;;;;;1.70;1.20;;;15.10;84.70;;;;;;4976577;28;20037;-81
2023/01/04 16:17:03;;;;;;;4.03;1.25;;;15.20;84.60;;;;;;4975437;28;20475;-81
2023/01/04 16:19:31;;;;;;;2.80;0.80;;;15.10;84.50;;;;;;4957644;28;20118;-80
2023/01/04 16:21:57;;;;;;;3.13;1.48;;;15.10;84.50;;;;;;4975084;28;20088;-80
2023/01/04 16:24:23;;;;;;;3.08;1.55;;;15.20;84.70;;;;;;4975164;28;20393;-80
2023/01/04 16:26:51;;;;;;;2.88;1.00;;;15.20;84.40;;;;;;4974686;28;20023;-81
2023/01/04 16:29:18;;;;;;;4.45;1.20;;;15.20;84.50;;;;;;4974073;28;20034;-80
2023/01/04 16:31:44;;;;;;;3.40;1.60;;;15.20;84.50;;;;;;4971506;28;20425;-80
2023/01/04 16:34:13;;;;;;;3.25;1.20;;;15.20;84.50;;;;;;4974621;28;20034;-80
2023/01/04 16:36:39;;;;;;;2.50;0.98;;;15.10;84.40;;;;;;4973309;28;20523;-80
2023/01/04 16:39:06;;;;;;;1.65;1.10;;;15.20;84.50;;;;;;4975193;28;20575;-80
2023/01/04 16:41:32;;;;;;;3.13;1.10;;;15.10;84.30;;;;;;4975966;28;20060;-81
2023/01/04 16:44:03;;;;;;;2.95;1.23;;;15.10;84.40;;;;;;4976668;28;20130;-82
2023/01/04 16:46:33;;;;;;;2.05;0.88;;;15.10;84.40;;;;;;4956977;28;20082;-81
2023/01/04 16:49:06;;;;;;;;;;;15.10;84.30;;;;;;4978286;28;20042;-82
2023/01/04 16:51:34;;;;;;;2.35;1.23;;;15.10;84.50;;;;;;4959067;28;20525;-81
2023/01/04 16:54:05;;;;;;;2.88;1.15;;;15.10;84.50;;;;;;4960388;28;20081;-81
2023/01/04 16:56:31;;;;;;;3.90;1.17;;;15.10;84.40;;;;;;4958704;28;20045;-85
2023/01/04 16:58:57;;;;;;;2.42;1.10;;;15.10;84.50;;;;;;4960567;28;20541;-80
2023/01/04 17:01:26;;;;;;;1.92;1.10;;;15.10;84.60;;;;;;4974134;28;20479;-86
2023/01/04 17:03:57;;;;;;;2.08;1.10;;;15.00;84.70;;;;;;4974267;28;20031;-84
2023/01/04 17:06:25;;;;;;;2.53;1.05;;;15.00;84.70;;;;;;4979194;28;20061;-86
2023/01/04 17:08:52;;;;;;;2.85;1.35;;;15.00;84.80;;;;;;4979713;28;20034;-87
2023/01/04 17:11:26;;;;;;;2.70;1.40;;;15.00;85.00;;;;;;4976937;28;20031;-88
2023/01/04 17:13:52;;;;;;;2.47;1.00;;;14.90;85.10;;;;;;4981928;28;20757;-86
2023/01/04 17:16:20;;;;;;;2.45;1.13;;;14.90;85.10;;;;;;4979767;28;20019;-86
2023/01/04 17:18:47;;;;;;;2.95;1.20;;;15.00;85.10;;;;;;4964280;28;20085;-88
2023/01/04 17:21:14;;;;;;;2.15;1.00;;;14.80;85.00;;;;;;4960186;28;20035;-85
2023/01/04 17:23:44;;;;;;;2.28;1.00;;;14.90;84.90;;;;;;4980509;28;20023;-87
2023/01/04 17:26:20;;;;;;;2.22;1.30;;;14.90;85.10;;;;;;4964816;28;20536;-87
2023/01/04 17:28:46;;;;;;;4.15;1.70;;;14.90;85.20;;;;;;4978868;28;20042;-87
2023/01/04 17:31:21;;;;;;;5.80;1.88;;;14.80;85.30;;;;;;4982306;28;20050;-87
2023/01/04 17:33:48;;;;;;;3.42;1.35;;;14.80;85.20;;;;;;4977362;28;20057;-89
2023/01/04 17:36:16;;;;;;;3.95;1.10;;;14.80;85.00;;;;;;4981972;28;20039;-87
2023/01/04 17:38:42;;;;;;;1.70;0.90;;;14.80;85.20;;;;;;4978973;28;20038;-88
2023/01/04 17:41:19;;;;;;;4.82;1.17;;;14.80;85.30;;;;;;4983353;28;20027;-87
2023/01/04 17:43:46;;;;;;;2.95;1.58;;;14.80;85.10;;;;;;4980042;28;20026;-82
2023/01/04 17:46:14;;;;;;;5.88;2.28;;;14.90;85.10;;;;;;4980401;28;20031;-88
2023/01/04 17:48:40;;;;;;;2.50;1.23;;;14.80;85.00;;;;;;4983937;28;20520;-87
2023/01/04 17:51:14;;;;;;;2.53;1.10;;;14.80;85.20;;;;;;4979405;28;20038;-88
2023/01/04 17:53:42;;;;;;;5.78;1.90;;;14.70;85.40;;;;;;4965406;28;20042;-88
2023/01/04 17:56:14;;;;;;;2.75;1.27;;;14.80;85.30;;;;;;4979345;28;20046;-87
2023/01/04 17:58:40;;;;;;;3.90;1.77;;;14.70;85.50;;;;;;4979445;28;20030;-88
2023/01/04 18:01:19;;;;;;;5.43;2.05;;;14.80;85.50;;;;;;4978487;28;20113;-87
2023/01/04 18:03:46;;;;;;;2.97;1.20;;;14.80;85.30;;;;;;4963153;28;20030;-87
2023/01/04 18:06:14;;;;;;;2.85;1.70;;;14.80;85.40;;;;;;4978996;28;20042;-84
2023/01/04 18:08:40;;;;;;;6.35;1.75;;;14.80;85.20;;;;;;4978587;28;20081;-86
2023/01/04 18:11:07;;;;;;;2.72;1.45;;;14.80;85.20;;;;;;4981962;28;20065;-85
2023/01/04 18:13:34;;;;;;;3.40;1.90;;;14.80;85.10;;;;;;4981374;28;20030;-88
2023/01/04 18:16:05;;;;;;;3.38;1.70;;;14.80;84.90;;;;;;4977532;28;20406;-88
2023/01/04 18:18:32;;;;;;;3.88;2.13;;;14.80;85.00;;;;;;4982356;28;20057;-86
2023/01/04 18:21:09;;;;;;;4.47;2.33;;;14.90;84.90;;;;;;4961711;28;20122;-88
2023/01/04 18:23:35;;;;;;;3.40;1.80;;;14.90;84.90;;;;;;4973791;28;20077;-89
2023/01/04 18:26:01;;;;;;;3.88;1.60;;;14.90;85.00;;;;;;4977268;28;20030;-88
2023/01/04 18:28:27;;;;;;;3.78;1.70;;;14.90;85.00;;;;;;4982247;28;20124;-85
2023/01/04 18:30:52;;;;;;;2.88;1.73;;;14.90;84.90;;;;;;4977207;28;20042;-86
2023/01/04 18:33:18;;;;;;;5.55;1.95;;;14.80;84.90;;;;;;4987904;28;20525;-83
2023/01/04 18:35:44;;;;;;;3.88;2.05;;;14.80;85.00;;;;;;4983433;28;20034;-89
2023/01/04 18:38:09;;;;;;;2.85;1.45;;;14.80;85.30;;;;;;4982391;28;20030;-89
2023/01/04 18:40:37;;;;;;;3.60;1.67;;;14.80;85.10;;;;;;4987680;28;20026;-88